sensor_id;sensor_type;location;lat;lon;timestamp;P1;durP1;ratioP1;P2;durP2;ratioP2
6280;SDS011;3173;48.204;11.612;2023-12-20T00:01:35;3.50;;;2.00;;
6280;SDS011;3173;48.204;11.612;2023-12-20T00:04:02;3.90;;;2.43;;
6280;SDS011;3173;48.204;11.612;2023-12-20T00:06:28;3.50;;;2.03;;
6280;SDS011;3173;48.204;11.612;2023-12-20T00:08:55;3.40;;;2.23;;
6280;SDS011;3173;48.204;11.612;2023-12-20T00:11:21;2.90;;;1.80;;
6280;SDS011;3173;48.204;11.612;2023-12-20T00:13:47;3.07;;;1.93;;
6280;SDS011;3173;48.204;11.612;2023-12-20T00:16:13;3.90;;;2.10;;
6280;SDS011;3173;48.204;11.612;2023-12-20T00:18:39;2.97;;;2.03;;
6280;SDS011;3173;48.204;11.612;2023-12-20T00:21:05;4.07;;;2.10;;
6280;SDS011;3173;48.204;11.612;2023-12-20T00:23:31;4.23;;;1.97;;
6280;SDS011;3173;48.204;11.612;2023-12-20T00:25:58;4.90;;;2.17;;
6280;SDS011;3173;48.204;11.612;2023-12-20T00:28:24;3.70;;;1.83;;
6280;SDS011;3173;48.204;11.612;2023-12-20T00:30:50;5.10;;;2.03;;
6280;SDS011;3173;48.204;11.612;2023-12-20T00:33:16;2.87;;;2.10;;
6280;SDS011;3173;48.204;11.612;2023-12-20T00:35:42;3.00;;;2.10;;
6280;SDS011;3173;48.204;11.612;2023-12-20T00:38:08;2.67;;;1.90;;
6280;SDS011;3173;48.204;11.612;2023-12-20T00:40:35;2.87;;;2.17;;
6280;SDS011;3173;48.204;11.612;2023-12-20T00:43:01;3.93;;;1.97;;
6280;SDS011;3173;48.204;11.612;2023-12-20T00:45:27;6.47;;;2.43;;
6280;SDS011;3173;48.204;11.612;2023-12-20T00:47:54;3.77;;;1.97;;
6280;SDS011;3173;48.204;11.612;2023-12-20T00:50:20;4.70;;;2.00;;
6280;SDS011;3173;48.204;11.612;2023-12-20T00:52:47;3.93;;;2.00;;
6280;SDS011;3173;48.204;11.612;2023-12-20T00:55:13;2.67;;;1.70;;
6280;SDS011;3173;48.204;11.612;2023-12-20T00:57:39;2.90;;;1.70;;
6280;SDS011;3173;48.204;11.612;2023-12-20T01:00:06;2.37;;;1.60;;
6280;SDS011;3173;48.204;11.612;2023-12-20T01:02:34;3.00;;;2.10;;
6280;SDS011;3173;48.204;11.612;2023-12-20T01:05:01;2.80;;;1.60;;
6280;SDS011;3173;48.204;11.612;2023-12-20T01:07:27;2.17;;;1.70;;
6280;SDS011;3173;48.204;11.612;2023-12-20T01:09:54;3.07;;;1.50;;
6280;SDS011;3173;48.204;11.612;2023-12-20T01:12:20;3.93;;;2.17;;
6280;SDS011;3173;48.204;11.612;2023-12-20T01:14:46;2.67;;;1.90;;
6280;SDS011;3173;48.204;11.612;2023-12-20T01:17:12;2.90;;;1.50;;
6280;SDS011;3173;48.204;11.612;2023-12-20T01:19:38;2.77;;;1.60;;
6280;SDS011;3173;48.204;11.612;2023-12-20T01:22:04;2.43;;;1.53;;
6280;SDS011;3173;48.204;11.612;2023-12-20T01:24:30;3.07;;;2.00;;
6280;SDS011;3173;48.204;11.612;2023-12-20T01:26:57;3.20;;;1.60;;
6280;SDS011;3173;48.204;11.612;2023-12-20T01:29:23;1.60;;;1.50;;
6280;SDS011;3173;48.204;11.612;2023-12-20T01:31:49;3.70;;;1.43;;
6280;SDS011;3173;48.204;11.612;2023-12-20T01:34:15;3.70;;;1.80;;
6280;SDS011;3173;48.204;11.612;2023-12-20T01:36:42;2.30;;;1.60;;
6280;SDS011;3173;48.204;11.612;2023-12-20T01:39:08;3.00;;;1.63;;
6280;SDS011;3173;48.204;11.612;2023-12-20T01:41:34;3.67;;;1.90;;
6280;SDS011;3173;48.204;11.612;2023-12-20T01:44:00;3.83;;;1.43;;
6280;SDS011;3173;48.204;11.612;2023-12-20T01:46:27;2.47;;;1.40;;
6280;SDS011;3173;48.204;11.612;2023-12-20T01:48:53;3.20;;;1.57;;
6280;SDS011;3173;48.204;11.612;2023-12-20T01:51:19;1.93;;;1.37;;
6280;SDS011;3173;48.204;11.612;2023-12-20T01:53:45;1.93;;;1.40;;
6280;SDS011;3173;48.204;11.612;2023-12-20T01:56:12;2.63;;;1.50;;
6280;SDS011;3173;48.204;11.612;2023-12-20T01:58:41;1.80;;;1.47;;
6280;SDS011;3173;48.204;11.612;2023-12-20T02:01:08;3.57;;;1.50;;
6280;SDS011;3173;48.204;11.612;2023-12-20T02:03:34;2.60;;;1.47;;
6280;SDS011;3173;48.204;11.612;2023-12-20T02:06:02;2.00;;;1.17;;
6280;SDS011;3173;48.204;11.612;2023-12-20T02:08:28;3.30;;;1.30;;
6280;SDS011;3173;48.204;11.612;2023-12-20T02:10:54;4.17;;;1.33;;
6280;SDS011;3173;48.204;11.612;2023-12-20T02:13:21;1.93;;;1.50;;
6280;SDS011;3173;48.204;11.612;2023-12-20T02:15:47;2.60;;;1.63;;
6280;SDS011;3173;48.204;11.612;2023-12-20T02:18:13;2.00;;;1.30;;
6280;SDS011;3173;48.204;11.612;2023-12-20T02:20:40;1.57;;;1.10;;
6280;SDS011;3173;48.204;11.612;2023-12-20T02:23:06;2.17;;;1.30;;
6280;SDS011;3173;48.204;11.612;2023-12-20T02:25:33;2.33;;;1.30;;
6280;SDS011;3173;48.204;11.612;2023-12-20T02:27:59;2.63;;;1.50;;
6280;SDS011;3173;48.204;11.612;2023-12-20T02:30:25;1.97;;;1.37;;
6280;SDS011;3173;48.204;11.612;2023-12-20T02:32:51;3.37;;;1.40;;
6280;SDS011;3173;48.204;11.612;2023-12-20T02:35:18;2.70;;;1.70;;
6280;SDS011;3173;48.204;11.612;2023-12-20T02:37:44;1.80;;;1.23;;
6280;SDS011;3173;48.204;11.612;2023-12-20T02:40:10;3.10;;;1.50;;
6280;SDS011;3173;48.204;11.612;2023-12-20T02:42:36;2.47;;;1.53;;
6280;SDS011;3173;48.204;11.612;2023-12-20T02:45:03;1.70;;;1.30;;
6280;SDS011;3173;48.204;11.612;2023-12-20T02:47:29;2.20;;;1.00;;
6280;SDS011;3173;48.204;11.612;2023-12-20T02:49:55;1.83;;;1.17;;
6280;SDS011;3173;48.204;11.612;2023-12-20T02:52:22;1.73;;;1.20;;
6280;SDS011;3173;48.204;11.612;2023-12-20T02:54:49;1.50;;;1.10;;
6280;SDS011;3173;48.204;11.612;2023-12-20T02:57:15;1.73;;;1.13;;
6280;SDS011;3173;48.204;11.612;2023-12-20T02:59:41;1.40;;;1.00;;
6280;SDS011;3173;48.204;11.612;2023-12-20T03:02:07;1.87;;;1.13;;
6280;SDS011;3173;48.204;11.612;2023-12-20T03:04:33;2.00;;;1.13;;
6280;SDS011;3173;48.204;11.612;2023-12-20T03:07:00;1.50;;;1.00;;
6280;SDS011;3173;48.204;11.612;2023-12-20T03:09:26;1.90;;;1.20;;
6280;SDS011;3173;48.204;11.612;2023-12-20T03:11:52;1.23;;;0.90;;
6280;SDS011;3173;48.204;11.612;2023-12-20T03:14:18;1.10;;;0.93;;
6280;SDS011;3173;48.204;11.612;2023-12-20T03:16:50;1.40;;;1.03;;
6280;SDS011;3173;48.204;11.612;2023-12-20T03:19:17;1.40;;;1.00;;
6280;SDS011;3173;48.204;11.612;2023-12-20T03:21:46;2.20;;;0.90;;
6280;SDS011;3173;48.204;11.612;2023-12-20T03:24:12;1.60;;;1.00;;
6280;SDS011;3173;48.204;11.612;2023-12-20T03:26:39;1.20;;;1.07;;
6280;SDS011;3173;48.204;11.612;2023-12-20T03:29:05;1.47;;;0.87;;
6280;SDS011;3173;48.204;11.612;2023-12-20T03:31:31;1.53;;;0.87;;
6280;SDS011;3173;48.204;11.612;2023-12-20T03:33:57;1.67;;;1.00;;
6280;SDS011;3173;48.204;11.612;2023-12-20T03:36:23;2.57;;;1.00;;
6280;SDS011;3173;48.204;11.612;2023-12-20T03:38:49;1.57;;;1.10;;
6280;SDS011;3173;48.204;11.612;2023-12-20T03:41:15;1.10;;;0.80;;
6280;SDS011;3173;48.204;11.612;2023-12-20T03:43:41;1.70;;;0.90;;
6280;SDS011;3173;48.204;11.612;2023-12-20T03:46:08;3.30;;;1.00;;
6280;SDS011;3173;48.204;11.612;2023-12-20T03:48:34;1.30;;;1.00;;
6280;SDS011;3173;48.204;11.612;2023-12-20T03:51:00;1.37;;;0.80;;
6280;SDS011;3173;48.204;11.612;2023-12-20T03:53:27;1.93;;;1.17;;
6280;SDS011;3173;48.204;11.612;2023-12-20T03:55:53;1.37;;;1.00;;
6280;SDS011;3173;48.204;11.612;2023-12-20T03:58:19;2.00;;;1.03;;
6280;SDS011;3173;48.204;11.612;2023-12-20T04:00:45;3.90;;;1.20;;
6280;SDS011;3173;48.204;11.612;2023-12-20T04:03:11;1.83;;;0.80;;
6280;SDS011;3173;48.204;11.612;2023-12-20T04:05:40;2.50;;;1.00;;
6280;SDS011;3173;48.204;11.612;2023-12-20T04:08:07;1.77;;;1.27;;
6280;SDS011;3173;48.204;11.612;2023-12-20T04:10:33;1.60;;;1.00;;
6280;SDS011;3173;48.204;11.612;2023-12-20T04:12:59;1.60;;;1.20;;
6280;SDS011;3173;48.204;11.612;2023-12-20T04:15:26;3.27;;;1.17;;
6280;SDS011;3173;48.204;11.612;2023-12-20T04:17:52;2.63;;;1.27;;
6280;SDS011;3173;48.204;11.612;2023-12-20T04:20:18;1.63;;;1.27;;
6280;SDS011;3173;48.204;11.612;2023-12-20T04:22:44;1.70;;;1.20;;
6280;SDS011;3173;48.204;11.612;2023-12-20T04:25:10;1.90;;;1.30;;
6280;SDS011;3173;48.204;11.612;2023-12-20T04:27:36;2.23;;;1.40;;
6280;SDS011;3173;48.204;11.612;2023-12-20T04:30:02;1.40;;;1.07;;
6280;SDS011;3173;48.204;11.612;2023-12-20T04:32:29;1.67;;;1.10;;
6280;SDS011;3173;48.204;11.612;2023-12-20T04:34:55;2.13;;;1.47;;
6280;SDS011;3173;48.204;11.612;2023-12-20T04:37:21;2.27;;;1.40;;
6280;SDS011;3173;48.204;11.612;2023-12-20T04:39:47;1.50;;;1.30;;
6280;SDS011;3173;48.204;11.612;2023-12-20T04:42:13;1.90;;;1.40;;
6280;SDS011;3173;48.204;11.612;2023-12-20T04:44:39;2.27;;;1.40;;
6280;SDS011;3173;48.204;11.612;2023-12-20T04:47:06;3.20;;;1.37;;
6280;SDS011;3173;48.204;11.612;2023-12-20T04:49:32;1.40;;;1.20;;
6280;SDS011;3173;48.204;11.612;2023-12-20T04:51:58;2.27;;;1.53;;
6280;SDS011;3173;48.204;11.612;2023-12-20T04:54:24;2.33;;;1.70;;
6280;SDS011;3173;48.204;11.612;2023-12-20T04:56:50;4.10;;;1.70;;
6280;SDS011;3173;48.204;11.612;2023-12-20T04:59:16;2.10;;;1.43;;
6280;SDS011;3173;48.204;11.612;2023-12-20T05:01:42;2.73;;;1.70;;
6280;SDS011;3173;48.204;11.612;2023-12-20T05:04:08;2.13;;;1.47;;
6280;SDS011;3173;48.204;11.612;2023-12-20T05:06:34;3.00;;;1.60;;
6280;SDS011;3173;48.204;11.612;2023-12-20T05:09:01;2.00;;;1.80;;
6280;SDS011;3173;48.204;11.612;2023-12-20T05:11:27;5.70;;;2.17;;
6280;SDS011;3173;48.204;11.612;2023-12-20T05:13:53;2.67;;;1.77;;
6280;SDS011;3173;48.204;11.612;2023-12-20T05:16:19;2.27;;;1.80;;
6280;SDS011;3173;48.204;11.612;2023-12-20T05:18:46;2.60;;;2.20;;
6280;SDS011;3173;48.204;11.612;2023-12-20T05:21:12;3.57;;;1.90;;
6280;SDS011;3173;48.204;11.612;2023-12-20T05:23:38;3.40;;;2.23;;
6280;SDS011;3173;48.204;11.612;2023-12-20T05:26:04;3.37;;;2.43;;
6280;SDS011;3173;48.204;11.612;2023-12-20T05:28:31;4.17;;;2.40;;
6280;SDS011;3173;48.204;11.612;2023-12-20T05:30:57;3.80;;;2.53;;
6280;SDS011;3173;48.204;11.612;2023-12-20T05:33:23;3.10;;;2.40;;
6280;SDS011;3173;48.204;11.612;2023-12-20T05:35:49;5.50;;;2.87;;
6280;SDS011;3173;48.204;11.612;2023-12-20T05:38:16;3.23;;;2.57;;
6280;SDS011;3173;48.204;11.612;2023-12-20T05:40:42;4.03;;;2.60;;
6280;SDS011;3173;48.204;11.612;2023-12-20T05:43:08;3.33;;;3.00;;
6280;SDS011;3173;48.204;11.612;2023-12-20T05:45:34;3.37;;;2.80;;
6280;SDS011;3173;48.204;11.612;2023-12-20T05:48:00;3.40;;;2.90;;
6280;SDS011;3173;48.204;11.612;2023-12-20T05:50:26;4.30;;;3.10;;
6280;SDS011;3173;48.204;11.612;2023-12-20T05:52:52;4.33;;;2.80;;
6280;SDS011;3173;48.204;11.612;2023-12-20T05:55:19;3.77;;;2.90;;
6280;SDS011;3173;48.204;11.612;2023-12-20T05:57:45;3.77;;;2.63;;
6280;SDS011;3173;48.204;11.612;2023-12-20T06:00:12;3.63;;;2.50;;
6280;SDS011;3173;48.204;11.612;2023-12-20T06:02:38;4.50;;;3.20;;
6280;SDS011;3173;48.204;11.612;2023-12-20T06:05:05;9.30;;;2.47;;
6280;SDS011;3173;48.204;11.612;2023-12-20T06:07:31;3.97;;;2.50;;
6280;SDS011;3173;48.204;11.612;2023-12-20T06:09:57;2.87;;;2.13;;
6280;SDS011;3173;48.204;11.612;2023-12-20T06:12:23;3.27;;;2.30;;
6280;SDS011;3173;48.204;11.612;2023-12-20T06:14:51;3.30;;;2.43;;
6280;SDS011;3173;48.204;11.612;2023-12-20T06:17:17;2.63;;;2.30;;
6280;SDS011;3173;48.204;11.612;2023-12-20T06:19:44;3.30;;;2.33;;
6280;SDS011;3173;48.204;11.612;2023-12-20T06:22:13;3.20;;;2.33;;
6280;SDS011;3173;48.204;11.612;2023-12-20T06:24:39;3.27;;;2.53;;
6280;SDS011;3173;48.204;11.612;2023-12-20T06:27:05;3.40;;;2.30;;
6280;SDS011;3173;48.204;11.612;2023-12-20T06:29:31;2.73;;;2.00;;
6280;SDS011;3173;48.204;11.612;2023-12-20T06:31:57;4.40;;;2.30;;
6280;SDS011;3173;48.204;11.612;2023-12-20T06:34:23;4.50;;;2.37;;
6280;SDS011;3173;48.204;11.612;2023-12-20T06:36:49;5.10;;;2.70;;
6280;SDS011;3173;48.204;11.612;2023-12-20T06:39:15;3.20;;;2.47;;
6280;SDS011;3173;48.204;11.612;2023-12-20T06:41:42;3.20;;;2.53;;
6280;SDS011;3173;48.204;11.612;2023-12-20T06:44:08;2.70;;;2.03;;
6280;SDS011;3173;48.204;11.612;2023-12-20T06:46:34;2.83;;;2.20;;
6280;SDS011;3173;48.204;11.612;2023-12-20T06:49:00;3.40;;;2.30;;
6280;SDS011;3173;48.204;11.612;2023-12-20T06:51:27;2.90;;;2.30;;
6280;SDS011;3173;48.204;11.612;2023-12-20T06:53:53;3.37;;;2.40;;
6280;SDS011;3173;48.204;11.612;2023-12-20T06:56:19;2.60;;;2.10;;
6280;SDS011;3173;48.204;11.612;2023-12-20T06:58:46;3.10;;;2.07;;
6280;SDS011;3173;48.204;11.612;2023-12-20T07:01:16;3.03;;;2.23;;
6280;SDS011;3173;48.204;11.612;2023-12-20T07:03:42;2.80;;;2.23;;
6280;SDS011;3173;48.204;11.612;2023-12-20T07:06:08;4.47;;;2.60;;
6280;SDS011;3173;48.204;11.612;2023-12-20T07:08:34;2.80;;;2.10;;
6280;SDS011;3173;48.204;11.612;2023-12-20T07:11:00;2.87;;;2.10;;
6280;SDS011;3173;48.204;11.612;2023-12-20T07:13:27;3.00;;;2.17;;
6280;SDS011;3173;48.204;11.612;2023-12-20T07:15:53;4.33;;;2.00;;
6280;SDS011;3173;48.204;11.612;2023-12-20T07:18:19;3.50;;;2.13;;
6280;SDS011;3173;48.204;11.612;2023-12-20T07:20:45;2.00;;;1.73;;
6280;SDS011;3173;48.204;11.612;2023-12-20T07:23:12;2.33;;;1.90;;
6280;SDS011;3173;48.204;11.612;2023-12-20T07:25:38;2.53;;;1.80;;
6280;SDS011;3173;48.204;11.612;2023-12-20T07:28:04;1.60;;;1.40;;
6280;SDS011;3173;48.204;11.612;2023-12-20T07:30:30;2.30;;;2.10;;
6280;SDS011;3173;48.204;11.612;2023-12-20T07:32:56;2.40;;;1.77;;
6280;SDS011;3173;48.204;11.612;2023-12-20T07:35:23;2.17;;;1.57;;
6280;SDS011;3173;48.204;11.612;2023-12-20T07:37:50;1.97;;;1.47;;
6280;SDS011;3173;48.204;11.612;2023-12-20T07:40:16;2.20;;;1.90;;
6280;SDS011;3173;48.204;11.612;2023-12-20T07:42:42;2.27;;;1.53;;
6280;SDS011;3173;48.204;11.612;2023-12-20T07:45:08;2.03;;;1.83;;
6280;SDS011;3173;48.204;11.612;2023-12-20T07:47:36;1.67;;;1.33;;
6280;SDS011;3173;48.204;11.612;2023-12-20T07:50:02;2.70;;;1.40;;
6280;SDS011;3173;48.204;11.612;2023-12-20T07:52:29;3.77;;;2.00;;
6280;SDS011;3173;48.204;11.612;2023-12-20T07:54:55;1.93;;;1.10;;
6280;SDS011;3173;48.204;11.612;2023-12-20T07:57:21;1.63;;;1.30;;
6280;SDS011;3173;48.204;11.612;2023-12-20T07:59:47;1.50;;;1.20;;
6280;SDS011;3173;48.204;11.612;2023-12-20T08:02:13;2.10;;;1.40;;
6280;SDS011;3173;48.204;11.612;2023-12-20T08:04:39;2.10;;;1.60;;
6280;SDS011;3173;48.204;11.612;2023-12-20T08:07:06;1.47;;;1.20;;
6280;SDS011;3173;48.204;11.612;2023-12-20T08:09:32;1.63;;;1.30;;
6280;SDS011;3173;48.204;11.612;2023-12-20T08:12:01;1.40;;;1.20;;
6280;SDS011;3173;48.204;11.612;2023-12-20T08:14:27;4.10;;;1.30;;
6280;SDS011;3173;48.204;11.612;2023-12-20T08:16:53;2.00;;;1.40;;
6280;SDS011;3173;48.204;11.612;2023-12-20T08:19:20;1.83;;;1.23;;
6280;SDS011;3173;48.204;11.612;2023-12-20T08:21:46;1.10;;;0.87;;
6280;SDS011;3173;48.204;11.612;2023-12-20T08:24:12;1.90;;;1.60;;
6280;SDS011;3173;48.204;11.612;2023-12-20T08:26:38;1.93;;;1.40;;
6280;SDS011;3173;48.204;11.612;2023-12-20T08:29:04;1.40;;;1.20;;
6280;SDS011;3173;48.204;11.612;2023-12-20T08:31:30;1.50;;;1.40;;
6280;SDS011;3173;48.204;11.612;2023-12-20T08:33:56;1.20;;;1.00;;
6280;SDS011;3173;48.204;11.612;2023-12-20T08:36:22;1.87;;;1.13;;
6280;SDS011;3173;48.204;11.612;2023-12-20T08:38:49;1.37;;;1.00;;
6280;SDS011;3173;48.204;11.612;2023-12-20T08:41:16;3.57;;;1.20;;
6280;SDS011;3173;48.204;11.612;2023-12-20T08:43:42;1.50;;;1.10;;
6280;SDS011;3173;48.204;11.612;2023-12-20T08:46:08;4.00;;;0.90;;
6280;SDS011;3173;48.204;11.612;2023-12-20T08:48:35;1.93;;;1.00;;
6280;SDS011;3173;48.204;11.612;2023-12-20T08:51:02;16.23;;;1.27;;
6280;SDS011;3173;48.204;11.612;2023-12-20T08:53:28;1.13;;;0.90;;
6280;SDS011;3173;48.204;11.612;2023-12-20T08:55:54;1.33;;;1.00;;
6280;SDS011;3173;48.204;11.612;2023-12-20T08:58:21;4.83;;;2.00;;
6280;SDS011;3173;48.204;11.612;2023-12-20T09:00:47;1.73;;;1.17;;
6280;SDS011;3173;48.204;11.612;2023-12-20T09:03:13;1.90;;;1.30;;
6280;SDS011;3173;48.204;11.612;2023-12-20T09:05:39;1.00;;;0.90;;
6280;SDS011;3173;48.204;11.612;2023-12-20T09:08:05;1.37;;;1.07;;
6280;SDS011;3173;48.204;11.612;2023-12-20T09:10:33;1.40;;;1.20;;
6280;SDS011;3173;48.204;11.612;2023-12-20T09:12:59;1.60;;;1.00;;
6280;SDS011;3173;48.204;11.612;2023-12-20T09:15:26;1.67;;;1.20;;
6280;SDS011;3173;48.204;11.612;2023-12-20T09:17:53;2.23;;;1.10;;
6280;SDS011;3173;48.204;11.612;2023-12-20T09:20:19;1.73;;;1.23;;
6280;SDS011;3173;48.204;11.612;2023-12-20T09:22:45;2.00;;;1.40;;
6280;SDS011;3173;48.204;11.612;2023-12-20T09:25:12;4.90;;;1.30;;
6280;SDS011;3173;48.204;11.612;2023-12-20T09:27:39;2.00;;;1.37;;
6280;SDS011;3173;48.204;11.612;2023-12-20T09:30:06;1.70;;;1.00;;
6280;SDS011;3173;48.204;11.612;2023-12-20T09:32:32;2.43;;;1.10;;
6280;SDS011;3173;48.204;11.612;2023-12-20T09:34:58;1.40;;;1.00;;
6280;SDS011;3173;48.204;11.612;2023-12-20T09:37:27;1.30;;;1.20;;
6280;SDS011;3173;48.204;11.612;2023-12-20T09:39:54;1.80;;;1.10;;
6280;SDS011;3173;48.204;11.612;2023-12-20T09:42:24;1.30;;;1.10;;
6280;SDS011;3173;48.204;11.612;2023-12-20T09:44:55;3.40;;;1.10;;
6280;SDS011;3173;48.204;11.612;2023-12-20T09:47:24;1.53;;;1.20;;
6280;SDS011;3173;48.204;11.612;2023-12-20T09:49:51;1.17;;;1.00;;
6280;SDS011;3173;48.204;11.612;2023-12-20T09:52:18;2.30;;;1.20;;
6280;SDS011;3173;48.204;11.612;2023-12-20T09:54:44;2.20;;;1.70;;
6280;SDS011;3173;48.204;11.612;2023-12-20T09:57:11;1.70;;;1.03;;
6280;SDS011;3173;48.204;11.612;2023-12-20T09:59:37;1.40;;;1.30;;
6280;SDS011;3173;48.204;11.612;2023-12-20T10:02:04;1.50;;;1.10;;
6280;SDS011;3173;48.204;11.612;2023-12-20T10:04:34;4.80;;;2.30;;
6280;SDS011;3173;48.204;11.612;2023-12-20T10:07:03;1.30;;;1.13;;
6280;SDS011;3173;48.204;11.612;2023-12-20T10:09:31;4.17;;;1.70;;
6280;SDS011;3173;48.204;11.612;2023-12-20T10:11:57;1.40;;;1.10;;
6280;SDS011;3173;48.204;11.612;2023-12-20T10:14:24;1.90;;;1.47;;
6280;SDS011;3173;48.204;11.612;2023-12-20T10:16:50;1.40;;;1.30;;
6280;SDS011;3173;48.204;11.612;2023-12-20T10:19:16;2.80;;;1.70;;
6280;SDS011;3173;48.204;11.612;2023-12-20T10:21:43;2.10;;;1.30;;
6280;SDS011;3173;48.204;11.612;2023-12-20T10:24:10;2.23;;;1.40;;
6280;SDS011;3173;48.204;11.612;2023-12-20T10:26:42;2.10;;;1.40;;
6280;SDS011;3173;48.204;11.612;2023-12-20T10:29:08;1.50;;;1.40;;
6280;SDS011;3173;48.204;11.612;2023-12-20T10:31:36;2.47;;;1.63;;
6280;SDS011;3173;48.204;11.612;2023-12-20T10:34:04;2.23;;;1.93;;
6280;SDS011;3173;48.204;11.612;2023-12-20T10:36:30;2.07;;;1.40;;
6280;SDS011;3173;48.204;11.612;2023-12-20T10:38:57;1.60;;;1.40;;
6280;SDS011;3173;48.204;11.612;2023-12-20T10:41:27;2.03;;;1.20;;
6280;SDS011;3173;48.204;11.612;2023-12-20T10:43:55;2.73;;;1.30;;
6280;SDS011;3173;48.204;11.612;2023-12-20T10:46:22;1.70;;;1.20;;
6280;SDS011;3173;48.204;11.612;2023-12-20T10:48:48;1.97;;;1.10;;
6280;SDS011;3173;48.204;11.612;2023-12-20T10:51:17;1.77;;;1.30;;
6280;SDS011;3173;48.204;11.612;2023-12-20T10:53:44;4.60;;;1.70;;
6280;SDS011;3173;48.204;11.612;2023-12-20T10:56:12;2.57;;;1.37;;
6280;SDS011;3173;48.204;11.612;2023-12-20T10:58:41;2.33;;;1.37;;
6280;SDS011;3173;48.204;11.612;2023-12-20T11:01:15;2.23;;;1.20;;
6280;SDS011;3173;48.204;11.612;2023-12-20T11:03:46;2.13;;;1.53;;
6280;SDS011;3173;48.204;11.612;2023-12-20T11:06:18;2.53;;;1.37;;
6280;SDS011;3173;48.204;11.612;2023-12-20T11:08:47;2.03;;;1.30;;
6280;SDS011;3173;48.204;11.612;2023-12-20T11:13:53;3.07;;;1.87;;
6280;SDS011;3173;48.204;11.612;2023-12-20T11:16:20;1.90;;;1.33;;
6280;SDS011;3173;48.204;11.612;2023-12-20T11:18:46;2.20;;;1.50;;
6280;SDS011;3173;48.204;11.612;2023-12-20T11:21:12;1.60;;;1.20;;
6280;SDS011;3173;48.204;11.612;2023-12-20T11:23:39;2.10;;;1.20;;
6280;SDS011;3173;48.204;11.612;2023-12-20T11:26:08;1.60;;;1.40;;
6280;SDS011;3173;48.204;11.612;2023-12-20T11:28:34;4.20;;;1.63;;
6280;SDS011;3173;48.204;11.612;2023-12-20T11:31:00;2.10;;;1.70;;
6280;SDS011;3173;48.204;11.612;2023-12-20T11:35:55;1.40;;;1.30;;
6280;SDS011;3173;48.204;11.612;2023-12-20T11:38:21;3.13;;;1.40;;
6280;SDS011;3173;48.204;11.612;2023-12-20T11:40:51;2.80;;;1.60;;
6280;SDS011;3173;48.204;11.612;2023-12-20T11:43:37;3.63;;;1.63;;
6280;SDS011;3173;48.204;11.612;2023-12-20T11:46:04;1.83;;;1.20;;
6280;SDS011;3173;48.204;11.612;2023-12-20T11:48:37;3.07;;;1.77;;
6280;SDS011;3173;48.204;11.612;2023-12-20T11:51:08;2.93;;;1.70;;
6280;SDS011;3173;48.204;11.612;2023-12-20T11:53:35;2.10;;;1.37;;
6280;SDS011;3173;48.204;11.612;2023-12-20T11:56:02;1.97;;;1.40;;
6280;SDS011;3173;48.204;11.612;2023-12-20T11:58:28;1.83;;;1.30;;
6280;SDS011;3173;48.204;11.612;2023-12-20T12:00:55;2.40;;;1.33;;
6280;SDS011;3173;48.204;11.612;2023-12-20T12:03:22;1.70;;;1.27;;
6280;SDS011;3173;48.204;11.612;2023-12-20T12:05:49;2.03;;;1.40;;
6280;SDS011;3173;48.204;11.612;2023-12-20T12:08:16;2.47;;;1.20;;
6280;SDS011;3173;48.204;11.612;2023-12-20T12:10:43;1.87;;;1.60;;
6280;SDS011;3173;48.204;11.612;2023-12-20T12:13:09;1.90;;;1.43;;
6280;SDS011;3173;48.204;11.612;2023-12-20T12:15:36;2.50;;;1.50;;
6280;SDS011;3173;48.204;11.612;2023-12-20T12:18:02;3.40;;;1.47;;
6280;SDS011;3173;48.204;11.612;2023-12-20T12:20:28;1.77;;;1.47;;
6280;SDS011;3173;48.204;11.612;2023-12-20T12:23:02;1.63;;;1.10;;
6280;SDS011;3173;48.204;11.612;2023-12-20T12:25:30;2.53;;;1.70;;
6280;SDS011;3173;48.204;11.612;2023-12-20T12:27:56;2.63;;;1.70;;
6280;SDS011;3173;48.204;11.612;2023-12-20T12:30:23;2.23;;;1.40;;
6280;SDS011;3173;48.204;11.612;2023-12-20T12:32:52;3.00;;;1.70;;
6280;SDS011;3173;48.204;11.612;2023-12-20T12:35:19;3.07;;;1.87;;
6280;SDS011;3173;48.204;11.612;2023-12-20T12:37:45;1.70;;;1.40;;
6280;SDS011;3173;48.204;11.612;2023-12-20T12:40:12;3.90;;;1.77;;
6280;SDS011;3173;48.204;11.612;2023-12-20T12:42:39;2.07;;;1.60;;
6280;SDS011;3173;48.204;11.612;2023-12-20T12:45:06;3.00;;;1.40;;
6280;SDS011;3173;48.204;11.612;2023-12-20T12:47:32;1.60;;;1.30;;
6280;SDS011;3173;48.204;11.612;2023-12-20T12:49:58;2.60;;;1.60;;
6280;SDS011;3173;48.204;11.612;2023-12-20T12:52:24;2.23;;;1.70;;
6280;SDS011;3173;48.204;11.612;2023-12-20T12:54:51;1.93;;;1.70;;
6280;SDS011;3173;48.204;11.612;2023-12-20T12:57:18;1.60;;;1.30;;
6280;SDS011;3173;48.204;11.612;2023-12-20T12:59:44;1.90;;;1.50;;
6280;SDS011;3173;48.204;11.612;2023-12-20T13:02:11;1.70;;;1.20;;
6280;SDS011;3173;48.204;11.612;2023-12-20T13:04:39;2.27;;;1.77;;
6280;SDS011;3173;48.204;11.612;2023-12-20T13:07:05;1.83;;;1.37;;
6280;SDS011;3173;48.204;11.612;2023-12-20T13:09:31;2.43;;;1.20;;
6280;SDS011;3173;48.204;11.612;2023-12-20T13:11:57;7.73;;;1.40;;
6280;SDS011;3173;48.204;11.612;2023-12-20T13:14:24;2.83;;;1.80;;
6280;SDS011;3173;48.204;11.612;2023-12-20T13:16:50;3.27;;;1.50;;
6280;SDS011;3173;48.204;11.612;2023-12-20T13:19:16;3.20;;;1.40;;
6280;SDS011;3173;48.204;11.612;2023-12-20T13:21:42;4.67;;;1.60;;
6280;SDS011;3173;48.204;11.612;2023-12-20T13:24:08;1.93;;;1.23;;
6280;SDS011;3173;48.204;11.612;2023-12-20T13:26:34;1.50;;;1.30;;
6280;SDS011;3173;48.204;11.612;2023-12-20T13:29:01;3.37;;;1.43;;
6280;SDS011;3173;48.204;11.612;2023-12-20T13:31:27;2.37;;;1.50;;
6280;SDS011;3173;48.204;11.612;2023-12-20T13:33:53;2.27;;;1.50;;
6280;SDS011;3173;48.204;11.612;2023-12-20T13:36:19;2.43;;;1.60;;
6280;SDS011;3173;48.204;11.612;2023-12-20T13:38:45;3.93;;;1.73;;
6280;SDS011;3173;48.204;11.612;2023-12-20T13:41:12;3.57;;;1.57;;
6280;SDS011;3173;48.204;11.612;2023-12-20T13:43:38;3.27;;;1.40;;
6280;SDS011;3173;48.204;11.612;2023-12-20T13:46:04;4.33;;;2.07;;
6280;SDS011;3173;48.204;11.612;2023-12-20T13:48:30;3.73;;;2.17;;
6280;SDS011;3173;48.204;11.612;2023-12-20T13:50:56;6.20;;;1.50;;
6280;SDS011;3173;48.204;11.612;2023-12-20T13:53:22;4.27;;;2.10;;
6280;SDS011;3173;48.204;11.612;2023-12-20T13:55:48;4.47;;;1.73;;
6280;SDS011;3173;48.204;11.612;2023-12-20T13:58:15;3.00;;;1.50;;
6280;SDS011;3173;48.204;11.612;2023-12-20T14:00:41;3.97;;;1.77;;
6280;SDS011;3173;48.204;11.612;2023-12-20T14:03:07;5.77;;;1.90;;
6280;SDS011;3173;48.204;11.612;2023-12-20T14:05:35;4.60;;;1.83;;
6280;SDS011;3173;48.204;11.612;2023-12-20T14:08:01;1.93;;;1.30;;
6280;SDS011;3173;48.204;11.612;2023-12-20T14:10:27;2.90;;;1.70;;
6280;SDS011;3173;48.204;11.612;2023-12-20T14:12:54;1.80;;;1.47;;
6280;SDS011;3173;48.204;11.612;2023-12-20T14:15:20;1.73;;;1.40;;
6280;SDS011;3173;48.204;11.612;2023-12-20T14:17:46;5.20;;;1.90;;
6280;SDS011;3173;48.204;11.612;2023-12-20T14:20:12;8.50;;;1.83;;
6280;SDS011;3173;48.204;11.612;2023-12-20T14:22:38;3.10;;;1.50;;
6280;SDS011;3173;48.204;11.612;2023-12-20T14:25:10;2.67;;;1.50;;
6280;SDS011;3173;48.204;11.612;2023-12-20T14:27:37;5.63;;;1.63;;
6280;SDS011;3173;48.204;11.612;2023-12-20T14:30:03;8.77;;;1.87;;
6280;SDS011;3173;48.204;11.612;2023-12-20T14:32:31;3.13;;;1.50;;
6280;SDS011;3173;48.204;11.612;2023-12-20T14:34:57;6.13;;;2.00;;
6280;SDS011;3173;48.204;11.612;2023-12-20T14:37:23;1.63;;;1.10;;
6280;SDS011;3173;48.204;11.612;2023-12-20T14:39:49;4.20;;;1.87;;
6280;SDS011;3173;48.204;11.612;2023-12-20T14:42:15;3.47;;;1.60;;
6280;SDS011;3173;48.204;11.612;2023-12-20T14:44:41;5.33;;;2.17;;
6280;SDS011;3173;48.204;11.612;2023-12-20T14:47:08;3.30;;;1.60;;
6280;SDS011;3173;48.204;11.612;2023-12-20T14:49:34;3.70;;;1.70;;
6280;SDS011;3173;48.204;11.612;2023-12-20T14:52:01;6.27;;;1.73;;
6280;SDS011;3173;48.204;11.612;2023-12-20T14:54:27;3.63;;;1.60;;
6280;SDS011;3173;48.204;11.612;2023-12-20T14:56:53;2.30;;;1.57;;
6280;SDS011;3173;48.204;11.612;2023-12-20T14:59:19;2.80;;;1.47;;
6280;SDS011;3173;48.204;11.612;2023-12-20T15:01:46;4.80;;;1.80;;